createdAt,value
2022-12-08T00:01:13.762Z,4.82
2022-12-08T00:03:41.980Z,4.81
2022-12-08T00:06:42.111Z,4.81
2022-12-08T00:09:23.615Z,4.83
2022-12-08T00:12:06.061Z,4.82
2022-12-08T00:14:35.769Z,4.86
2022-12-08T00:17:03.865Z,4.88
2022-12-08T00:19:31.194Z,4.90
2022-12-08T00:21:58.830Z,4.89
2022-12-08T00:24:31.488Z,4.91
2022-12-08T00:26:58.579Z,4.90
2022-12-08T00:29:25.932Z,4.91
2022-12-08T00:31:52.992Z,4.92
2022-12-08T00:34:20.145Z,4.94
2022-12-08T00:36:47.195Z,4.94
2022-12-08T00:39:16.661Z,4.95
2022-12-08T00:42:02.761Z,4.96
2022-12-08T00:44:29.718Z,4.97
2022-12-08T00:46:56.730Z,4.99
2022-12-08T00:49:24.159Z,5.00
2022-12-08T00:51:51.238Z,5.00
2022-12-08T00:54:19.081Z,4.95
2022-12-08T00:56:46.710Z,4.97
2022-12-08T00:59:14.670Z,4.92
2022-12-08T01:01:44.048Z,4.94
2022-12-08T01:04:15.728Z,4.94
2022-12-08T01:06:43.018Z,4.90
2022-12-08T01:09:11.529Z,4.87
2022-12-08T01:11:38.469Z,4.84
2022-12-08T01:14:05.490Z,4.87
2022-12-08T01:16:35.302Z,4.86
2022-12-08T01:19:02.909Z,4.81
2022-12-08T01:21:29.991Z,4.84
2022-12-08T01:24:00.640Z,4.84
2022-12-08T01:26:27.829Z,4.81
2022-12-08T01:28:54.832Z,4.83
2022-12-08T01:31:23.123Z,4.82
2022-12-08T01:33:50.337Z,4.79
2022-12-08T01:36:23.451Z,4.76
2022-12-08T01:38:51.489Z,4.74
2022-12-08T01:41:20.669Z,4.71
2022-12-08T01:44:01.716Z,4.72
2022-12-08T01:46:31.980Z,4.76
2022-12-08T01:49:05.649Z,4.75
2022-12-08T01:51:37.790Z,4.76
2022-12-08T01:54:07.228Z,4.78
2022-12-08T01:56:48.590Z,4.79
2022-12-08T01:59:16.948Z,4.80
2022-12-08T02:01:43.985Z,4.79
2022-12-08T02:04:11.209Z,4.78
2022-12-08T02:06:43.419Z,4.78
2022-12-08T02:09:11.369Z,4.79
2022-12-08T02:11:38.429Z,4.80
2022-12-08T02:14:08.988Z,4.82
2022-12-08T02:16:43.270Z,4.79
2022-12-08T02:19:45.849Z,4.80
2022-12-08T02:22:49.929Z,4.79
2022-12-08T02:25:29.490Z,4.76
2022-12-08T02:28:20.989Z,4.75
2022-12-08T02:31:13.908Z,4.75
2022-12-08T02:34:03.018Z,4.70
2022-12-08T02:36:48.851Z,4.72
2022-12-08T02:39:27.810Z,4.69
2022-12-08T02:42:26.429Z,4.61
2022-12-08T02:45:01.330Z,4.62
2022-12-08T02:47:30.517Z,4.63
2022-12-08T02:49:58.490Z,4.58
2022-12-08T02:52:25.470Z,4.57
2022-12-08T02:55:06.628Z,4.54
2022-12-08T02:58:08.849Z,4.57
2022-12-08T03:00:53.670Z,4.56
2022-12-08T03:03:35.869Z,4.53
2022-12-08T03:06:18.271Z,4.55
2022-12-08T03:09:04.109Z,4.59
2022-12-08T03:11:40.231Z,4.53
2022-12-08T03:14:10.891Z,4.57
2022-12-08T03:16:41.632Z,4.54
2022-12-08T03:19:20.173Z,4.53
2022-12-08T03:21:54.515Z,4.55
2022-12-08T03:24:23.550Z,4.56
2022-12-08T03:27:01.315Z,4.59
2022-12-08T03:29:28.713Z,4.59
2022-12-08T03:32:21.473Z,4.59
2022-12-08T03:34:50.170Z,4.65
2022-12-08T03:37:17.371Z,4.60
2022-12-08T03:39:44.710Z,4.61
2022-12-08T03:42:11.829Z,4.59
2022-12-08T03:44:38.870Z,4.63
2022-12-08T03:47:06.032Z,4.63
2022-12-08T03:49:32.990Z,4.66
2022-12-08T03:52:00.037Z,4.65
2022-12-08T03:54:27.078Z,4.66
2022-12-08T03:56:54.091Z,4.67
2022-12-08T03:59:21.317Z,4.67
2022-12-08T04:01:48.285Z,4.67
2022-12-08T04:04:15.388Z,4.69
2022-12-08T04:06:42.451Z,4.70
2022-12-08T04:09:09.632Z,4.72
2022-12-08T04:11:36.730Z,4.73
2022-12-08T04:14:03.872Z,4.71
2022-12-08T04:16:30.999Z,4.70
2022-12-08T04:18:58.112Z,4.66
2022-12-08T04:21:25.257Z,4.64
2022-12-08T04:23:56.231Z,4.65
2022-12-08T04:26:27.758Z,4.64
2022-12-08T04:28:54.830Z,4.60
2022-12-08T04:31:21.957Z,4.58
2022-12-08T04:33:49.092Z,4.57
2022-12-08T04:36:16.120Z,4.56
2022-12-08T04:38:43.089Z,4.58
2022-12-08T04:41:10.490Z,4.58
2022-12-08T04:43:37.949Z,4.61
2022-12-08T04:46:11.396Z,4.59
2022-12-08T04:48:41.518Z,4.59
2022-12-08T04:51:17.833Z,4.60
2022-12-08T04:53:46.874Z,4.60
2022-12-08T04:56:15.935Z,4.61
2022-12-08T04:58:43.254Z,4.64
2022-12-08T05:01:11.127Z,4.66
2022-12-08T05:03:38.509Z,4.64
2022-12-08T05:06:05.969Z,4.69
2022-12-08T05:08:33.737Z,4.69
2022-12-08T05:11:09.729Z,4.71
2022-12-08T05:13:36.789Z,4.73
2022-12-08T05:16:12.376Z,4.73
2022-12-08T05:18:40.589Z,4.76
2022-12-08T05:21:07.469Z,4.77
2022-12-08T05:23:34.977Z,4.78
2022-12-08T05:26:02.350Z,4.78
2022-12-08T05:28:44.833Z,4.81
2022-12-08T05:31:13.561Z,4.81
2022-12-08T05:33:40.855Z,4.84
2022-12-08T05:36:08.506Z,4.86
2022-12-08T05:38:36.154Z,4.86
2022-12-08T05:41:03.175Z,4.87
2022-12-08T05:43:30.264Z,4.90
2022-12-08T05:45:57.437Z,4.90
2022-12-08T05:48:24.528Z,4.92
2022-12-08T05:50:52.373Z,4.92
2022-12-08T05:53:20.543Z,4.90
2022-12-08T05:55:47.610Z,4.93
2022-12-08T05:58:17.737Z,4.90
2022-12-08T06:00:46.819Z,4.89
2022-12-08T06:03:15.420Z,4.89
2022-12-08T06:05:44.287Z,4.91
2022-12-08T06:08:12.134Z,4.88
2022-12-08T06:10:44.848Z,4.84
2022-12-08T06:13:12.176Z,4.80
2022-12-08T06:15:40.259Z,4.77
2022-12-08T06:18:08.288Z,4.76
2022-12-08T06:20:35.353Z,4.73
2022-12-08T06:23:03.770Z,4.73
2022-12-08T06:25:30.770Z,4.69
2022-12-08T06:27:57.927Z,4.67
2022-12-08T06:30:25.009Z,4.68
2022-12-08T06:32:52.102Z,4.67
2022-12-08T06:35:19.274Z,4.68
2022-12-08T06:37:46.367Z,4.63
2022-12-08T06:40:13.927Z,4.65
2022-12-08T06:42:44.052Z,4.61
2022-12-08T06:45:12.258Z,4.63
2022-12-08T06:47:39.217Z,4.61
2022-12-08T06:50:10.372Z,4.61
2022-12-08T06:52:47.237Z,4.58
2022-12-08T06:55:42.458Z,4.58
2022-12-08T06:58:07.888Z,4.59
2022-12-08T07:00:34.967Z,4.60
2022-12-08T07:03:02.158Z,4.65
2022-12-08T07:05:29.487Z,4.66
2022-12-08T07:07:56.713Z,4.66
2022-12-08T07:10:24.087Z,4.66
2022-12-08T07:12:51.289Z,4.64
2022-12-08T07:15:18.888Z,4.62
2022-12-08T07:17:46.047Z,4.61
2022-12-08T07:20:13.287Z,4.60
2022-12-08T07:22:41.016Z,4.58
2022-12-08T07:25:08.608Z,4.62
2022-12-08T07:27:35.771Z,4.59
2022-12-08T07:30:03.356Z,4.57
2022-12-08T07:32:30.732Z,4.60
2022-12-08T07:34:58.011Z,4.58
2022-12-08T07:37:25.209Z,4.61
2022-12-08T07:39:52.327Z,4.59
2022-12-08T07:42:19.610Z,4.55
2022-12-08T07:44:47.369Z,4.55
2022-12-08T07:47:14.607Z,4.56
2022-12-08T07:49:41.979Z,4.55
2022-12-08T07:52:09.173Z,4.55
2022-12-08T07:54:36.568Z,4.54
2022-12-08T07:57:04.168Z,4.59
2022-12-08T07:59:31.442Z,4.59
2022-12-08T08:02:22.426Z,4.60
2022-12-08T08:04:46.162Z,4.62
2022-12-08T08:07:13.334Z,4.68
2022-12-08T08:09:40.531Z,4.70
2022-12-08T08:12:30.247Z,4.75
2022-12-08T08:14:55.331Z,4.79
2022-12-08T08:17:22.771Z,4.81
2022-12-08T08:19:50.127Z,4.83
2022-12-08T08:22:17.331Z,4.86
2022-12-08T08:24:45.230Z,4.87
2022-12-08T08:27:13.249Z,4.89
2022-12-08T08:29:42.849Z,4.91
2022-12-08T08:32:10.143Z,4.94
2022-12-08T08:34:37.491Z,4.96
2022-12-08T08:37:04.670Z,4.97
2022-12-08T08:39:32.167Z,5.01
2022-12-08T08:41:59.648Z,5.02
2022-12-08T08:44:26.952Z,5.01
2022-12-08T08:46:54.323Z,5.02
2022-12-08T08:49:21.690Z,5.00
2022-12-08T08:51:48.889Z,4.98
2022-12-08T08:54:16.328Z,5.00
2022-12-08T08:56:43.528Z,4.99
2022-12-08T08:59:10.890Z,4.94
2022-12-08T09:01:38.138Z,4.95
2022-12-08T09:04:05.490Z,4.95
2022-12-08T09:06:32.979Z,4.90
2022-12-08T09:09:00.209Z,4.94
2022-12-08T09:11:27.369Z,4.91
2022-12-08T09:13:55.183Z,4.92
2022-12-08T09:16:22.991Z,4.93
2022-12-08T09:18:50.888Z,4.91
2022-12-08T09:21:23.170Z,4.94
2022-12-08T09:23:51.849Z,4.95
2022-12-08T09:26:22.703Z,4.94
2022-12-08T09:28:54.810Z,4.96
2022-12-08T09:31:23.125Z,5.01
2022-12-08T09:33:54.143Z,5.10
2022-12-08T09:36:21.700Z,5.16
2022-12-08T09:38:50.570Z,5.26
2022-12-08T09:41:48.498Z,5.32
2022-12-08T09:44:41.369Z,5.39
2022-12-08T09:47:43.091Z,5.42
2022-12-08T09:50:14.609Z,5.47
2022-12-08T09:53:04.009Z,5.55
2022-12-08T09:55:49.855Z,5.61
2022-12-08T09:58:30.170Z,5.60
2022-12-08T10:00:58.208Z,5.63
2022-12-08T10:03:28.289Z,5.64
2022-12-08T10:06:08.088Z,5.58
2022-12-08T10:09:02.413Z,5.59
2022-12-08T10:12:11.171Z,5.59
2022-12-08T10:14:49.571Z,5.57
2022-12-08T10:17:24.768Z,5.58
2022-12-08T10:20:00.688Z,5.56
2022-12-08T10:22:37.623Z,5.60
2022-12-08T10:25:20.648Z,5.62
2022-12-08T10:27:51.930Z,5.59
2022-12-08T10:30:20.810Z,5.59
2022-12-08T10:32:54.250Z,5.57
2022-12-08T10:35:23.127Z,5.53
2022-12-08T10:37:58.612Z,5.53
2022-12-08T10:40:29.658Z,5.43
2022-12-08T10:42:59.609Z,5.46
2022-12-08T10:45:33.808Z,5.47
2022-12-08T10:48:04.170Z,5.46
2022-12-08T10:50:35.847Z,5.48
2022-12-08T10:53:13.737Z,5.45
2022-12-08T10:55:47.631Z,5.40
2022-12-08T10:58:36.171Z,5.36
2022-12-08T11:01:26.600Z,5.36
2022-12-08T11:04:04.448Z,5.35
2022-12-08T11:06:41.527Z,5.35
2022-12-08T11:09:20.848Z,5.36
2022-12-08T11:12:00.169Z,5.33
2022-12-08T11:14:31.173Z,5.36
2022-12-08T11:17:11.368Z,5.41
2022-12-08T11:19:54.887Z,5.45
2022-12-08T11:22:22.408Z,5.44
2022-12-08T11:25:07.769Z,5.49
2022-12-08T11:27:37.288Z,5.47
2022-12-08T11:30:14.970Z,5.45
2022-12-08T11:32:45.129Z,5.46
2022-12-08T11:35:27.288Z,5.46
2022-12-08T11:38:13.388Z,5.44
2022-12-08T11:40:46.106Z,5.45
2022-12-08T11:43:21.528Z,5.47
2022-12-08T11:45:57.075Z,5.46
2022-12-08T11:48:32.569Z,5.44
2022-12-08T11:51:11.651Z,5.41
2022-12-08T11:53:47.608Z,5.39
2022-12-08T11:56:24.809Z,5.39
2022-12-08T11:58:58.850Z,5.36
2022-12-08T12:13:45.208Z,4.68
2022-12-08T12:16:15.912Z,4.68
2022-12-08T12:18:47.888Z,4.74
2022-12-08T12:21:21.607Z,4.83
2022-12-08T12:24:09.929Z,4.98
2022-12-08T12:27:00.528Z,5.10
2022-12-08T12:29:31.809Z,5.17
2022-12-08T12:32:05.047Z,5.24
2022-12-08T12:34:36.407Z,5.25
2022-12-08T12:37:13.769Z,5.36
2022-12-08T12:39:56.207Z,5.41
2022-12-08T12:42:35.607Z,5.45
2022-12-08T12:45:17.728Z,5.42
2022-12-08T12:47:45.129Z,5.53
2022-12-08T12:50:15.626Z,5.57
2022-12-08T12:52:43.930Z,5.53
2022-12-08T12:55:10.968Z,5.56
2022-12-08T12:57:40.169Z,5.57
2022-12-08T13:00:10.402Z,5.58
2022-12-08T13:02:49.339Z,5.61
2022-12-08T13:05:25.728Z,5.58
2022-12-08T13:07:59.719Z,5.58
2022-12-08T13:10:38.137Z,5.60
2022-12-08T13:13:12.705Z,5.66
2022-12-08T13:16:15.369Z,5.58
2022-12-08T13:18:58.089Z,5.62
2022-12-08T13:21:32.411Z,5.61
2022-12-08T13:24:14.657Z,5.62
2022-12-08T13:27:07.970Z,5.59
2022-12-08T13:29:37.577Z,5.54
2022-12-08T13:32:25.888Z,5.57
2022-12-08T13:34:58.175Z,5.54
2022-12-08T13:37:54.755Z,5.46
2022-12-08T13:40:27.488Z,5.48
2022-12-08T13:43:13.647Z,5.48
2022-12-08T13:56:05.316Z,5.45
2022-12-08T13:57:37.189Z,5.42
2022-12-08T14:00:16.450Z,5.39
2022-12-08T14:02:51.445Z,5.42
2022-12-08T14:05:40.823Z,5.43
2022-12-08T14:08:36.305Z,5.41
2022-12-08T14:11:07.689Z,5.38
2022-12-08T14:13:35.088Z,5.39
2022-12-08T14:16:02.785Z,5.38
2022-12-08T14:18:32.208Z,5.36
2022-12-08T14:21:21.606Z,5.37
2022-12-08T14:23:49.097Z,5.37
2022-12-08T14:26:16.368Z,5.37
2022-12-08T14:28:45.158Z,5.42
2022-12-08T14:31:14.943Z,5.45
2022-12-08T14:33:42.768Z,5.45
2022-12-08T14:36:11.064Z,5.45
2022-12-08T14:38:38.124Z,5.48
2022-12-08T14:41:12.011Z,5.47
2022-12-08T14:43:41.197Z,5.47
2022-12-08T14:46:23.365Z,5.45
2022-12-08T14:48:50.733Z,5.44
2022-12-08T14:51:21.136Z,5.41
2022-12-08T14:54:10.175Z,5.39
2022-12-08T14:56:48.887Z,5.38
2022-12-08T14:59:20.609Z,5.35
2022-12-08T15:01:50.042Z,5.30
2022-12-08T15:04:37.733Z,5.27
2022-12-08T15:07:15.296Z,5.26
2022-12-08T15:09:45.647Z,5.24
2022-12-08T15:12:12.848Z,5.23
2022-12-08T15:15:01.824Z,5.24
2022-12-08T15:17:34.688Z,5.21
2022-12-08T15:20:04.001Z,5.19
2022-12-08T15:22:31.852Z,5.20
2022-12-08T15:24:59.088Z,5.15
2022-12-08T15:27:26.691Z,5.16
2022-12-08T15:29:54.010Z,5.07
2022-12-08T15:32:23.729Z,5.11
2022-12-08T15:34:50.971Z,5.11
2022-12-08T15:37:26.808Z,5.11
2022-12-08T15:39:54.261Z,5.07
2022-12-08T15:42:21.529Z,5.07
2022-12-08T15:44:49.094Z,5.08
2022-12-08T15:47:22.255Z,5.12
2022-12-08T15:49:50.776Z,5.12
2022-12-08T15:52:21.330Z,5.09
2022-12-08T15:54:49.493Z,5.09
2022-12-08T15:57:35.879Z,5.07
2022-12-08T16:07:04.777Z,5.08
2022-12-08T16:09:32.921Z,5.13
2022-12-08T16:12:19.131Z,5.17
2022-12-08T16:15:48.121Z,5.22
2022-12-08T16:17:34.941Z,5.22
2022-12-08T16:20:04.511Z,5.21
2022-12-08T16:25:22.303Z,5.22
2022-12-08T16:30:43.453Z,5.22
2022-12-08T16:33:12.689Z,5.22
2022-12-08T16:35:41.530Z,5.22
2022-12-08T16:38:08.817Z,5.26
2022-12-08T16:40:55.889Z,5.27
2022-12-08T16:43:23.250Z,5.19
2022-12-08T16:45:50.395Z,5.24
2022-12-08T16:48:17.577Z,5.24
2022-12-08T16:50:46.136Z,5.18
2022-12-08T16:53:13.647Z,5.14
2022-12-08T16:55:43.889Z,5.09
2022-12-08T16:58:11.215Z,5.11
2022-12-08T17:00:38.453Z,5.09
2022-12-08T17:03:08.332Z,5.13
2022-12-08T17:05:36.491Z,5.14
2022-12-08T17:08:03.726Z,5.17
2022-12-08T17:10:34.609Z,5.19
2022-12-08T17:13:02.694Z,5.18
2022-12-08T17:15:30.048Z,5.17
2022-12-08T17:17:57.176Z,5.17
2022-12-08T17:20:28.090Z,5.19
2022-12-08T17:22:58.051Z,5.19
2022-12-08T17:25:28.169Z,5.18
2022-12-08T17:27:56.611Z,5.22
2022-12-08T17:30:23.849Z,5.22
2022-12-08T17:32:53.128Z,5.23
2022-12-08T17:35:20.856Z,5.26
2022-12-08T17:37:48.449Z,5.26
2022-12-08T17:40:15.811Z,5.20
2022-12-08T17:42:43.088Z,5.26
2022-12-08T17:45:10.688Z,5.26
2022-12-08T17:47:38.209Z,5.26
2022-12-08T17:50:07.473Z,5.26
2022-12-08T17:52:34.927Z,5.24
2022-12-08T17:55:02.374Z,5.26
2022-12-08T17:57:29.489Z,5.26
2022-12-08T17:59:56.737Z,5.25
2022-12-08T18:02:24.115Z,5.27
2022-12-08T18:04:51.369Z,5.24
2022-12-08T18:07:18.609Z,5.23
2022-12-08T18:09:45.889Z,5.20
2022-12-08T18:12:13.128Z,5.19
2022-12-08T18:14:40.451Z,5.15
2022-12-08T18:17:07.767Z,5.16
2022-12-08T18:19:35.128Z,5.14
2022-12-08T18:22:02.412Z,5.14
2022-12-08T18:24:29.612Z,4.98
2022-12-08T18:26:58.051Z,4.97
2022-12-08T18:29:25.649Z,4.96
2022-12-08T18:31:53.027Z,4.98
2022-12-08T18:34:20.572Z,5.00
2022-12-08T18:36:48.379Z,4.97
2022-12-08T18:39:27.889Z,4.99
2022-12-08T18:41:56.290Z,5.02
2022-12-08T18:44:24.127Z,5.04
2022-12-08T18:46:51.730Z,5.02
2022-12-08T18:49:20.016Z,5.07
2022-12-08T18:51:47.654Z,5.01
2022-12-08T18:54:15.171Z,5.09
2022-12-08T18:56:42.368Z,5.15
2022-12-08T18:59:12.295Z,5.16
2022-12-08T19:01:40.606Z,5.07
2022-12-08T19:04:27.807Z,5.04
2022-12-08T19:06:55.929Z,5.07
2022-12-08T19:09:23.291Z,5.12
2022-12-08T19:11:50.529Z,5.06
2022-12-08T19:14:20.199Z,5.01
2022-12-08T19:16:51.772Z,5.01
2022-12-08T19:19:19.449Z,4.97
2022-12-08T19:21:46.906Z,4.96
2022-12-08T19:24:14.177Z,4.97
2022-12-08T19:26:41.730Z,4.94
2022-12-08T19:29:09.294Z,4.90
2022-12-08T19:31:36.614Z,4.88
2022-12-08T19:34:05.649Z,4.86
2022-12-08T19:36:35.780Z,4.84
2022-12-08T19:39:23.968Z,4.76
2022-12-08T19:42:10.131Z,4.72
2022-12-08T19:44:55.478Z,4.73
2022-12-08T19:47:27.449Z,4.65
2022-12-08T19:50:15.533Z,4.59
2022-12-08T19:52:42.946Z,4.54
2022-12-08T19:55:11.019Z,4.53
2022-12-08T19:57:38.728Z,4.53
2022-12-08T20:00:08.431Z,4.48
2022-12-08T20:02:37.189Z,4.46
2022-12-08T20:05:05.851Z,4.44
2022-12-08T20:07:33.169Z,4.46
2022-12-08T20:10:00.489Z,4.46
2022-12-08T20:12:27.692Z,4.45
2022-12-08T20:14:55.030Z,4.44
2022-12-08T20:17:22.211Z,4.43
2022-12-08T20:19:49.494Z,4.39
2022-12-08T20:22:16.751Z,4.38
2022-12-08T20:24:44.110Z,4.37
2022-12-08T20:27:11.421Z,4.35
2022-12-08T20:29:38.742Z,4.32
2022-12-08T20:32:06.139Z,4.29
2022-12-08T20:34:34.865Z,4.25
2022-12-08T20:37:02.101Z,4.19
2022-12-08T20:39:29.329Z,4.13
2022-12-08T20:41:56.667Z,4.10
2022-12-08T20:44:23.929Z,4.08
2022-12-08T20:46:51.220Z,4.06
2022-12-08T20:49:18.690Z,4.03
2022-12-08T20:51:46.937Z,4.01
2022-12-08T20:54:14.423Z,3.94
2022-12-08T20:56:46.598Z,3.91
2022-12-08T20:59:18.380Z,3.89
2022-12-08T21:01:45.920Z,3.85
2022-12-08T21:04:13.562Z,3.78
2022-12-08T21:06:40.936Z,3.70
2022-12-08T21:09:09.266Z,3.68
2022-12-08T21:11:36.612Z,3.68
2022-12-08T21:14:03.931Z,3.67
2022-12-08T21:16:31.716Z,3.67
2022-12-08T21:18:59.192Z,3.61
2022-12-08T21:21:26.531Z,3.61
2022-12-08T21:23:54.184Z,3.57
2022-12-08T21:26:26.201Z,3.51
2022-12-08T21:28:58.619Z,3.43
2022-12-08T21:31:31.957Z,3.35
2022-12-08T21:34:00.257Z,3.33
2022-12-08T21:36:27.781Z,3.35
2022-12-08T21:38:55.370Z,3.32
2022-12-08T21:41:42.834Z,3.30
2022-12-08T21:44:13.188Z,3.27
2022-12-08T21:46:40.584Z,3.26
2022-12-08T21:49:08.949Z,3.21
2022-12-08T21:51:38.065Z,3.19
2022-12-08T21:54:05.475Z,3.18
2022-12-08T21:56:32.960Z,3.09
2022-12-08T21:59:00.239Z,3.04
2022-12-08T22:01:27.644Z,3.00
2022-12-08T22:03:55.338Z,2.93
2022-12-08T22:06:22.883Z,2.85
2022-12-08T22:08:50.166Z,2.79
2022-12-08T22:11:18.395Z,2.75
2022-12-08T22:13:46.024Z,2.73
2022-12-08T22:16:15.015Z,2.76
2022-12-08T22:18:42.843Z,2.74
2022-12-08T22:21:12.406Z,2.78
2022-12-08T22:23:39.690Z,2.78
2022-12-08T22:26:07.906Z,2.72
2022-12-08T22:28:36.554Z,2.74
2022-12-08T22:31:16.301Z,2.81
2022-12-08T22:33:44.368Z,2.84
2022-12-08T22:36:17.919Z,2.85
2022-12-08T22:38:45.879Z,2.85
2022-12-08T22:41:13.609Z,2.90
2022-12-08T22:43:42.105Z,2.88
2022-12-08T22:46:35.359Z,2.94
2022-12-08T22:49:03.160Z,2.98
2022-12-08T22:51:30.369Z,3.00
2022-12-08T22:53:57.489Z,3.02
2022-12-08T22:56:25.044Z,3.07
2022-12-08T22:58:52.432Z,3.10
2022-12-08T23:01:31.824Z,3.14
2022-12-08T23:04:00.223Z,3.14
2022-12-08T23:06:29.639Z,3.16
2022-12-08T23:08:57.488Z,3.10
2022-12-08T23:11:27.697Z,3.13
2022-12-08T23:13:56.450Z,3.13
2022-12-08T23:16:23.937Z,3.14
2022-12-08T23:18:51.465Z,3.16
2022-12-08T23:21:20.381Z,3.21
2022-12-08T23:23:48.257Z,3.22
2022-12-08T23:26:25.806Z,3.25
2022-12-08T23:28:54.042Z,3.25
2022-12-08T23:31:22.178Z,3.22
2022-12-08T23:33:49.412Z,3.23
2022-12-08T23:36:18.371Z,3.25
2022-12-08T23:38:46.370Z,3.27
2022-12-08T23:41:15.541Z,3.30
2022-12-08T23:43:51.449Z,3.29
2022-12-08T23:46:21.046Z,3.31
2022-12-08T23:48:48.744Z,3.31
2022-12-08T23:51:16.089Z,3.34
2022-12-08T23:53:44.510Z,3.33
2022-12-08T23:56:14.986Z,3.31
2022-12-08T23:58:43.697Z,3.36
